sensor_id;sensor_type;location;lat;lon;timestamp;P1;durP1;ratioP1;P2;durP2;ratioP2
4575;SDS011;2300;51.874;8.430;2023-12-20T00:01:11;34.00;;;18.73;;
4575;SDS011;2300;51.874;8.430;2023-12-20T00:03:38;35.40;;;19.93;;
4575;SDS011;2300;51.874;8.430;2023-12-20T00:06:05;33.73;;;17.87;;
4575;SDS011;2300;51.874;8.430;2023-12-20T00:08:32;34.60;;;17.60;;
4575;SDS011;2300;51.874;8.430;2023-12-20T00:10:59;32.90;;;17.47;;
4575;SDS011;2300;51.874;8.430;2023-12-20T00:13:26;31.13;;;17.00;;
4575;SDS011;2300;51.874;8.430;2023-12-20T00:15:53;33.80;;;16.70;;
4575;SDS011;2300;51.874;8.430;2023-12-20T00:18:21;29.33;;;16.00;;
4575;SDS011;2300;51.874;8.430;2023-12-20T00:20:47;26.93;;;14.07;;
4575;SDS011;2300;51.874;8.430;2023-12-20T00:23:14;29.13;;;14.97;;
4575;SDS011;2300;51.874;8.430;2023-12-20T00:25:41;28.13;;;13.73;;
4575;SDS011;2300;51.874;8.430;2023-12-20T00:28:07;26.70;;;14.00;;
4575;SDS011;2300;51.874;8.430;2023-12-20T00:30:34;26.80;;;13.47;;
4575;SDS011;2300;51.874;8.430;2023-12-20T00:33:01;21.43;;;13.10;;
4575;SDS011;2300;51.874;8.430;2023-12-20T00:35:31;26.57;;;13.20;;
4575;SDS011;2300;51.874;8.430;2023-12-20T00:37:58;25.00;;;12.77;;
4575;SDS011;2300;51.874;8.430;2023-12-20T00:40:25;21.10;;;11.17;;
4575;SDS011;2300;51.874;8.430;2023-12-20T00:42:51;23.73;;;11.30;;
4575;SDS011;2300;51.874;8.430;2023-12-20T00:45:17;20.70;;;10.90;;
4575;SDS011;2300;51.874;8.430;2023-12-20T00:47:44;20.70;;;10.13;;
4575;SDS011;2300;51.874;8.430;2023-12-20T00:50:11;19.43;;;9.43;;
4575;SDS011;2300;51.874;8.430;2023-12-20T00:52:39;17.60;;;8.43;;
4575;SDS011;2300;51.874;8.430;2023-12-20T00:55:06;25.30;;;8.47;;
4575;SDS011;2300;51.874;8.430;2023-12-20T00:57:33;16.20;;;8.00;;
4575;SDS011;2300;51.874;8.430;2023-12-20T00:59:59;14.77;;;7.27;;
4575;SDS011;2300;51.874;8.430;2023-12-20T01:02:26;14.10;;;6.83;;
4575;SDS011;2300;51.874;8.430;2023-12-20T01:04:52;14.87;;;6.97;;
4575;SDS011;2300;51.874;8.430;2023-12-20T01:07:19;16.47;;;6.80;;
4575;SDS011;2300;51.874;8.430;2023-12-20T01:09:47;12.90;;;6.17;;
4575;SDS011;2300;51.874;8.430;2023-12-20T01:12:14;12.77;;;5.87;;
4575;SDS011;2300;51.874;8.430;2023-12-20T01:14:41;14.87;;;5.40;;
4575;SDS011;2300;51.874;8.430;2023-12-20T01:17:07;14.23;;;5.83;;
4575;SDS011;2300;51.874;8.430;2023-12-20T01:19:34;13.80;;;5.47;;
4575;SDS011;2300;51.874;8.430;2023-12-20T01:22:01;15.43;;;5.03;;
4575;SDS011;2300;51.874;8.430;2023-12-20T01:24:27;13.77;;;5.30;;
4575;SDS011;2300;51.874;8.430;2023-12-20T01:26:55;15.67;;;5.77;;
4575;SDS011;2300;51.874;8.430;2023-12-20T01:29:22;12.07;;;5.03;;
4575;SDS011;2300;51.874;8.430;2023-12-20T01:31:48;13.77;;;5.40;;
4575;SDS011;2300;51.874;8.430;2023-12-20T01:34:15;15.93;;;5.77;;
4575;SDS011;2300;51.874;8.430;2023-12-20T01:36:43;16.70;;;5.77;;
4575;SDS011;2300;51.874;8.430;2023-12-20T01:39:10;15.57;;;5.77;;
4575;SDS011;2300;51.874;8.430;2023-12-20T01:41:37;16.00;;;6.43;;
4575;SDS011;2300;51.874;8.430;2023-12-20T01:44:05;19.43;;;7.40;;
4575;SDS011;2300;51.874;8.430;2023-12-20T01:46:31;17.47;;;6.93;;
4575;SDS011;2300;51.874;8.430;2023-12-20T01:48:58;13.37;;;6.97;;
4575;SDS011;2300;51.874;8.430;2023-12-20T01:51:25;13.07;;;6.17;;
4575;SDS011;2300;51.874;8.430;2023-12-20T01:53:53;14.30;;;6.17;;
4575;SDS011;2300;51.874;8.430;2023-12-20T01:56:21;17.53;;;7.33;;
4575;SDS011;2300;51.874;8.430;2023-12-20T01:58:47;17.53;;;7.17;;
4575;SDS011;2300;51.874;8.430;2023-12-20T02:01:16;15.63;;;6.20;;
4575;SDS011;2300;51.874;8.430;2023-12-20T02:03:43;18.80;;;6.67;;
4575;SDS011;2300;51.874;8.430;2023-12-20T02:06:11;14.77;;;6.10;;
4575;SDS011;2300;51.874;8.430;2023-12-20T02:08:37;15.50;;;6.47;;
4575;SDS011;2300;51.874;8.430;2023-12-20T02:11:04;15.00;;;5.90;;
4575;SDS011;2300;51.874;8.430;2023-12-20T02:13:31;18.13;;;6.40;;
4575;SDS011;2300;51.874;8.430;2023-12-20T02:15:57;14.80;;;5.97;;
4575;SDS011;2300;51.874;8.430;2023-12-20T02:18:25;19.50;;;6.27;;
4575;SDS011;2300;51.874;8.430;2023-12-20T02:20:52;16.30;;;6.13;;
4575;SDS011;2300;51.874;8.430;2023-12-20T02:23:20;13.73;;;6.67;;
4575;SDS011;2300;51.874;8.430;2023-12-20T02:25:46;17.00;;;6.50;;
4575;SDS011;2300;51.874;8.430;2023-12-20T02:28:13;12.57;;;6.70;;
4575;SDS011;2300;51.874;8.430;2023-12-20T02:30:40;17.60;;;7.10;;
4575;SDS011;2300;51.874;8.430;2023-12-20T02:33:07;17.23;;;6.40;;
4575;SDS011;2300;51.874;8.430;2023-12-20T02:35:38;18.17;;;7.50;;
4575;SDS011;2300;51.874;8.430;2023-12-20T02:38:04;16.60;;;6.90;;
4575;SDS011;2300;51.874;8.430;2023-12-20T02:40:32;20.17;;;7.23;;
4575;SDS011;2300;51.874;8.430;2023-12-20T02:42:59;20.43;;;8.27;;
4575;SDS011;2300;51.874;8.430;2023-12-20T02:45:26;16.60;;;8.17;;
4575;SDS011;2300;51.874;8.430;2023-12-20T02:47:52;17.00;;;8.33;;
4575;SDS011;2300;51.874;8.430;2023-12-20T02:50:19;20.27;;;7.87;;
4575;SDS011;2300;51.874;8.430;2023-12-20T02:52:46;26.53;;;8.80;;
4575;SDS011;2300;51.874;8.430;2023-12-20T02:55:13;24.87;;;9.67;;
4575;SDS011;2300;51.874;8.430;2023-12-20T02:57:41;24.13;;;8.80;;
4575;SDS011;2300;51.874;8.430;2023-12-20T03:00:07;24.37;;;9.73;;
4575;SDS011;2300;51.874;8.430;2023-12-20T03:02:35;20.00;;;9.10;;
4575;SDS011;2300;51.874;8.430;2023-12-20T03:05:02;23.77;;;9.47;;
4575;SDS011;2300;51.874;8.430;2023-12-20T03:07:29;28.50;;;11.17;;
4575;SDS011;2300;51.874;8.430;2023-12-20T03:09:56;23.33;;;10.50;;
4575;SDS011;2300;51.874;8.430;2023-12-20T03:12:23;22.70;;;10.87;;
4575;SDS011;2300;51.874;8.430;2023-12-20T03:14:51;28.97;;;11.30;;
4575;SDS011;2300;51.874;8.430;2023-12-20T03:17:17;29.97;;;11.50;;
4575;SDS011;2300;51.874;8.430;2023-12-20T03:19:44;23.80;;;12.83;;
4575;SDS011;2300;51.874;8.430;2023-12-20T03:22:11;29.20;;;11.73;;
4575;SDS011;2300;51.874;8.430;2023-12-20T03:24:37;24.57;;;11.53;;
4575;SDS011;2300;51.874;8.430;2023-12-20T03:27:04;23.60;;;11.30;;
4575;SDS011;2300;51.874;8.430;2023-12-20T03:29:31;27.83;;;11.83;;
4575;SDS011;2300;51.874;8.430;2023-12-20T03:31:59;25.50;;;11.50;;
4575;SDS011;2300;51.874;8.430;2023-12-20T03:34:26;24.67;;;11.70;;
4575;SDS011;2300;51.874;8.430;2023-12-20T03:36:54;28.77;;;11.20;;
4575;SDS011;2300;51.874;8.430;2023-12-20T03:39:20;26.77;;;10.13;;
4575;SDS011;2300;51.874;8.430;2023-12-20T03:41:47;27.70;;;10.57;;
4575;SDS011;2300;51.874;8.430;2023-12-20T03:44:13;21.70;;;10.17;;
4575;SDS011;2300;51.874;8.430;2023-12-20T03:46:40;25.80;;;10.13;;
4575;SDS011;2300;51.874;8.430;2023-12-20T03:49:08;21.03;;;9.43;;
4575;SDS011;2300;51.874;8.430;2023-12-20T03:51:34;19.00;;;8.57;;
4575;SDS011;2300;51.874;8.430;2023-12-20T03:54:01;29.03;;;9.70;;
4575;SDS011;2300;51.874;8.430;2023-12-20T03:56:28;26.30;;;9.50;;
4575;SDS011;2300;51.874;8.430;2023-12-20T03:58:54;21.03;;;8.73;;
4575;SDS011;2300;51.874;8.430;2023-12-20T04:01:21;23.20;;;9.40;;
4575;SDS011;2300;51.874;8.430;2023-12-20T04:03:48;22.43;;;9.87;;
4575;SDS011;2300;51.874;8.430;2023-12-20T04:06:17;30.03;;;9.73;;
4575;SDS011;2300;51.874;8.430;2023-12-20T04:08:44;23.70;;;8.37;;
4575;SDS011;2300;51.874;8.430;2023-12-20T04:11:10;20.10;;;8.60;;
4575;SDS011;2300;51.874;8.430;2023-12-20T04:13:37;22.30;;;8.73;;
4575;SDS011;2300;51.874;8.430;2023-12-20T04:16:04;20.77;;;8.47;;
4575;SDS011;2300;51.874;8.430;2023-12-20T04:18:30;24.60;;;8.17;;
4575;SDS011;2300;51.874;8.430;2023-12-20T04:20:57;20.63;;;7.33;;
4575;SDS011;2300;51.874;8.430;2023-12-20T04:23:25;20.03;;;8.03;;
4575;SDS011;2300;51.874;8.430;2023-12-20T04:25:51;26.17;;;8.20;;
4575;SDS011;2300;51.874;8.430;2023-12-20T04:28:19;16.07;;;7.57;;
4575;SDS011;2300;51.874;8.430;2023-12-20T04:30:46;21.07;;;7.53;;
4575;SDS011;2300;51.874;8.430;2023-12-20T04:33:12;21.53;;;7.47;;
4575;SDS011;2300;51.874;8.430;2023-12-20T04:35:39;27.10;;;7.47;;
4575;SDS011;2300;51.874;8.430;2023-12-20T04:38:08;26.13;;;7.70;;
4575;SDS011;2300;51.874;8.430;2023-12-20T04:40:36;21.43;;;6.97;;
4575;SDS011;2300;51.874;8.430;2023-12-20T04:43:02;24.23;;;6.70;;
4575;SDS011;2300;51.874;8.430;2023-12-20T04:45:29;23.47;;;7.47;;
4575;SDS011;2300;51.874;8.430;2023-12-20T04:47:56;20.80;;;6.77;;
4575;SDS011;2300;51.874;8.430;2023-12-20T04:50:23;23.33;;;7.00;;
4575;SDS011;2300;51.874;8.430;2023-12-20T04:52:49;22.37;;;6.17;;
4575;SDS011;2300;51.874;8.430;2023-12-20T04:55:16;18.63;;;6.40;;
4575;SDS011;2300;51.874;8.430;2023-12-20T04:57:44;20.97;;;7.50;;
4575;SDS011;2300;51.874;8.430;2023-12-20T05:00:11;20.67;;;6.77;;
4575;SDS011;2300;51.874;8.430;2023-12-20T05:02:40;20.23;;;6.43;;
4575;SDS011;2300;51.874;8.430;2023-12-20T05:05:07;18.20;;;5.73;;
4575;SDS011;2300;51.874;8.430;2023-12-20T05:07:34;24.53;;;6.50;;
4575;SDS011;2300;51.874;8.430;2023-12-20T05:10:01;20.33;;;6.30;;
4575;SDS011;2300;51.874;8.430;2023-12-20T05:12:29;18.47;;;5.93;;
4575;SDS011;2300;51.874;8.430;2023-12-20T05:14:57;18.07;;;6.30;;
4575;SDS011;2300;51.874;8.430;2023-12-20T05:17:24;19.03;;;5.87;;
4575;SDS011;2300;51.874;8.430;2023-12-20T05:19:51;29.57;;;6.53;;
4575;SDS011;2300;51.874;8.430;2023-12-20T05:22:17;21.83;;;7.37;;
4575;SDS011;2300;51.874;8.430;2023-12-20T05:24:44;21.17;;;6.40;;
4575;SDS011;2300;51.874;8.430;2023-12-20T05:27:10;22.17;;;7.47;;
4575;SDS011;2300;51.874;8.430;2023-12-20T05:29:37;22.80;;;6.80;;
4575;SDS011;2300;51.874;8.430;2023-12-20T05:32:05;25.17;;;6.73;;
4575;SDS011;2300;51.874;8.430;2023-12-20T05:34:32;19.17;;;6.77;;
4575;SDS011;2300;51.874;8.430;2023-12-20T05:36:59;24.23;;;7.50;;
4575;SDS011;2300;51.874;8.430;2023-12-20T05:39:26;28.80;;;7.90;;
4575;SDS011;2300;51.874;8.430;2023-12-20T05:41:53;20.73;;;7.20;;
4575;SDS011;2300;51.874;8.430;2023-12-20T05:44:20;22.47;;;8.53;;
4575;SDS011;2300;51.874;8.430;2023-12-20T05:46:46;20.20;;;8.73;;
4575;SDS011;2300;51.874;8.430;2023-12-20T05:49:14;19.13;;;7.70;;
4575;SDS011;2300;51.874;8.430;2023-12-20T05:51:40;26.40;;;8.53;;
4575;SDS011;2300;51.874;8.430;2023-12-20T05:54:07;33.50;;;9.60;;
4575;SDS011;2300;51.874;8.430;2023-12-20T05:56:34;31.23;;;8.67;;
4575;SDS011;2300;51.874;8.430;2023-12-20T05:59:00;28.80;;;8.90;;
4575;SDS011;2300;51.874;8.430;2023-12-20T06:01:27;26.53;;;9.73;;
4575;SDS011;2300;51.874;8.430;2023-12-20T06:03:54;26.50;;;8.93;;
4575;SDS011;2300;51.874;8.430;2023-12-20T06:06:22;32.03;;;9.37;;
4575;SDS011;2300;51.874;8.430;2023-12-20T06:08:49;29.43;;;9.20;;
4575;SDS011;2300;51.874;8.430;2023-12-20T06:11:16;26.23;;;8.90;;
4575;SDS011;2300;51.874;8.430;2023-12-20T06:13:43;27.23;;;9.20;;
4575;SDS011;2300;51.874;8.430;2023-12-20T06:16:09;23.63;;;8.00;;
4575;SDS011;2300;51.874;8.430;2023-12-20T06:18:36;27.33;;;8.67;;
4575;SDS011;2300;51.874;8.430;2023-12-20T06:21:03;27.10;;;8.67;;
4575;SDS011;2300;51.874;8.430;2023-12-20T06:23:33;25.80;;;8.23;;
4575;SDS011;2300;51.874;8.430;2023-12-20T06:26:00;26.73;;;8.93;;
4575;SDS011;2300;51.874;8.430;2023-12-20T06:28:26;26.00;;;8.73;;
4575;SDS011;2300;51.874;8.430;2023-12-20T06:30:53;26.33;;;9.17;;
4575;SDS011;2300;51.874;8.430;2023-12-20T06:33:20;30.63;;;8.97;;
4575;SDS011;2300;51.874;8.430;2023-12-20T06:35:47;27.97;;;9.93;;
4575;SDS011;2300;51.874;8.430;2023-12-20T06:38:14;36.70;;;9.70;;
4575;SDS011;2300;51.874;8.430;2023-12-20T06:40:42;22.30;;;8.93;;
4575;SDS011;2300;51.874;8.430;2023-12-20T06:43:08;27.20;;;9.20;;
4575;SDS011;2300;51.874;8.430;2023-12-20T06:45:35;22.73;;;8.47;;
4575;SDS011;2300;51.874;8.430;2023-12-20T06:48:02;28.43;;;9.47;;
4575;SDS011;2300;51.874;8.430;2023-12-20T06:50:29;31.83;;;8.83;;
4575;SDS011;2300;51.874;8.430;2023-12-20T06:52:55;26.37;;;9.17;;
4575;SDS011;2300;51.874;8.430;2023-12-20T06:55:22;24.13;;;8.87;;
4575;SDS011;2300;51.874;8.430;2023-12-20T06:57:50;30.97;;;9.03;;
4575;SDS011;2300;51.874;8.430;2023-12-20T07:00:16;20.77;;;8.13;;
4575;SDS011;2300;51.874;8.430;2023-12-20T07:02:45;26.87;;;8.93;;
4575;SDS011;2300;51.874;8.430;2023-12-20T07:05:12;28.80;;;8.53;;
4575;SDS011;2300;51.874;8.430;2023-12-20T07:07:42;23.37;;;9.13;;
4575;SDS011;2300;51.874;8.430;2023-12-20T07:10:08;25.50;;;7.60;;
4575;SDS011;2300;51.874;8.430;2023-12-20T07:12:35;23.87;;;7.80;;
4575;SDS011;2300;51.874;8.430;2023-12-20T07:15:03;30.23;;;8.40;;
4575;SDS011;2300;51.874;8.430;2023-12-20T07:17:30;23.57;;;9.10;;
4575;SDS011;2300;51.874;8.430;2023-12-20T07:19:58;27.30;;;8.97;;
4575;SDS011;2300;51.874;8.430;2023-12-20T07:22:28;28.70;;;8.20;;
4575;SDS011;2300;51.874;8.430;2023-12-20T07:24:55;26.53;;;7.60;;
4575;SDS011;2300;51.874;8.430;2023-12-20T07:27:21;18.30;;;6.70;;
4575;SDS011;2300;51.874;8.430;2023-12-20T07:29:48;22.40;;;7.27;;
4575;SDS011;2300;51.874;8.430;2023-12-20T07:32:16;23.67;;;6.40;;
4575;SDS011;2300;51.874;8.430;2023-12-20T07:34:42;25.40;;;7.27;;
4575;SDS011;2300;51.874;8.430;2023-12-20T07:37:09;24.83;;;6.67;;
4575;SDS011;2300;51.874;8.430;2023-12-20T07:39:37;18.77;;;6.77;;
4575;SDS011;2300;51.874;8.430;2023-12-20T07:42:05;23.13;;;6.87;;
4575;SDS011;2300;51.874;8.430;2023-12-20T07:44:31;23.13;;;7.20;;
4575;SDS011;2300;51.874;8.430;2023-12-20T07:46:58;23.60;;;7.23;;
4575;SDS011;2300;51.874;8.430;2023-12-20T07:49:27;25.30;;;7.20;;
4575;SDS011;2300;51.874;8.430;2023-12-20T07:51:54;25.17;;;6.90;;
4575;SDS011;2300;51.874;8.430;2023-12-20T07:54:20;24.70;;;6.73;;
4575;SDS011;2300;51.874;8.430;2023-12-20T07:56:47;20.03;;;6.50;;
4575;SDS011;2300;51.874;8.430;2023-12-20T07:59:14;22.03;;;6.90;;
4575;SDS011;2300;51.874;8.430;2023-12-20T08:01:41;20.20;;;6.83;;
4575;SDS011;2300;51.874;8.430;2023-12-20T08:04:08;26.10;;;8.03;;
4575;SDS011;2300;51.874;8.430;2023-12-20T08:06:36;22.97;;;6.90;;
4575;SDS011;2300;51.874;8.430;2023-12-20T08:09:02;25.30;;;7.80;;
4575;SDS011;2300;51.874;8.430;2023-12-20T08:11:29;23.90;;;7.97;;
4575;SDS011;2300;51.874;8.430;2023-12-20T08:13:55;27.93;;;8.33;;
4575;SDS011;2300;51.874;8.430;2023-12-20T08:16:22;23.60;;;7.93;;
4575;SDS011;2300;51.874;8.430;2023-12-20T08:18:48;29.13;;;9.17;;
4575;SDS011;2300;51.874;8.430;2023-12-20T08:21:15;28.67;;;8.70;;
4575;SDS011;2300;51.874;8.430;2023-12-20T08:23:43;24.43;;;9.30;;
4575;SDS011;2300;51.874;8.430;2023-12-20T08:26:10;24.80;;;9.97;;
4575;SDS011;2300;51.874;8.430;2023-12-20T08:28:36;23.73;;;9.80;;
4575;SDS011;2300;51.874;8.430;2023-12-20T08:31:03;27.50;;;11.10;;
4575;SDS011;2300;51.874;8.430;2023-12-20T08:33:30;30.33;;;11.97;;
4575;SDS011;2300;51.874;8.430;2023-12-20T08:35:56;28.27;;;12.80;;
4575;SDS011;2300;51.874;8.430;2023-12-20T08:38:23;30.03;;;12.67;;
4575;SDS011;2300;51.874;8.430;2023-12-20T08:40:51;30.20;;;13.93;;
4575;SDS011;2300;51.874;8.430;2023-12-20T08:43:17;30.10;;;13.40;;
4575;SDS011;2300;51.874;8.430;2023-12-20T08:45:44;31.90;;;12.77;;
4575;SDS011;2300;51.874;8.430;2023-12-20T08:48:10;25.87;;;12.20;;
4575;SDS011;2300;51.874;8.430;2023-12-20T08:50:37;29.77;;;13.80;;
4575;SDS011;2300;51.874;8.430;2023-12-20T08:53:04;30.90;;;13.43;;
4575;SDS011;2300;51.874;8.430;2023-12-20T08:55:30;33.77;;;14.47;;
4575;SDS011;2300;51.874;8.430;2023-12-20T08:57:58;32.30;;;14.03;;
4575;SDS011;2300;51.874;8.430;2023-12-20T09:00:25;29.30;;;14.00;;
4575;SDS011;2300;51.874;8.430;2023-12-20T09:02:52;26.20;;;13.53;;
4575;SDS011;2300;51.874;8.430;2023-12-20T09:05:21;24.60;;;13.47;;
4575;SDS011;2300;51.874;8.430;2023-12-20T09:07:49;33.60;;;14.40;;
4575;SDS011;2300;51.874;8.430;2023-12-20T09:10:15;27.80;;;14.47;;
4575;SDS011;2300;51.874;8.430;2023-12-20T09:12:47;29.13;;;14.77;;
4575;SDS011;2300;51.874;8.430;2023-12-20T09:15:14;27.03;;;14.80;;
4575;SDS011;2300;51.874;8.430;2023-12-20T09:17:41;29.53;;;14.23;;
4575;SDS011;2300;51.874;8.430;2023-12-20T09:20:09;32.73;;;14.77;;
4575;SDS011;2300;51.874;8.430;2023-12-20T09:22:36;28.23;;;15.97;;
4575;SDS011;2300;51.874;8.430;2023-12-20T09:25:03;32.63;;;15.53;;
4575;SDS011;2300;51.874;8.430;2023-12-20T09:27:30;30.67;;;15.30;;
4575;SDS011;2300;51.874;8.430;2023-12-20T09:29:57;37.97;;;15.97;;
4575;SDS011;2300;51.874;8.430;2023-12-20T09:32:25;30.80;;;15.07;;
4575;SDS011;2300;51.874;8.430;2023-12-20T09:34:51;33.87;;;14.97;;
4575;SDS011;2300;51.874;8.430;2023-12-20T09:37:18;28.70;;;14.83;;
4575;SDS011;2300;51.874;8.430;2023-12-20T09:39:44;30.37;;;14.13;;
4575;SDS011;2300;51.874;8.430;2023-12-20T09:42:11;31.87;;;14.57;;
4575;SDS011;2300;51.874;8.430;2023-12-20T09:44:42;35.73;;;13.77;;
4575;SDS011;2300;51.874;8.430;2023-12-20T09:47:09;31.50;;;13.80;;
4575;SDS011;2300;51.874;8.430;2023-12-20T09:49:37;33.67;;;13.37;;
4575;SDS011;2300;51.874;8.430;2023-12-20T09:52:04;33.33;;;13.40;;
4575;SDS011;2300;51.874;8.430;2023-12-20T09:54:33;31.63;;;12.90;;
4575;SDS011;2300;51.874;8.430;2023-12-20T09:57:00;28.93;;;12.20;;
4575;SDS011;2300;51.874;8.430;2023-12-20T09:59:30;30.23;;;12.33;;
4575;SDS011;2300;51.874;8.430;2023-12-20T10:01:57;31.97;;;13.03;;
4575;SDS011;2300;51.874;8.430;2023-12-20T10:04:25;28.97;;;12.70;;
4575;SDS011;2300;51.874;8.430;2023-12-20T10:06:53;29.87;;;12.87;;
4575;SDS011;2300;51.874;8.430;2023-12-20T10:09:21;31.93;;;12.77;;
4575;SDS011;2300;51.874;8.430;2023-12-20T10:11:48;24.77;;;12.20;;
4575;SDS011;2300;51.874;8.430;2023-12-20T10:14:14;29.57;;;12.50;;
4575;SDS011;2300;51.874;8.430;2023-12-20T10:16:43;27.93;;;12.30;;
4575;SDS011;2300;51.874;8.430;2023-12-20T10:19:10;27.27;;;11.80;;
4575;SDS011;2300;51.874;8.430;2023-12-20T10:21:36;26.67;;;11.43;;
4575;SDS011;2300;51.874;8.430;2023-12-20T10:24:04;26.67;;;12.23;;
4575;SDS011;2300;51.874;8.430;2023-12-20T10:26:31;24.20;;;11.87;;
4575;SDS011;2300;51.874;8.430;2023-12-20T10:29:00;20.23;;;10.57;;
4575;SDS011;2300;51.874;8.430;2023-12-20T10:31:28;29.23;;;10.57;;
4575;SDS011;2300;51.874;8.430;2023-12-20T10:33:56;27.90;;;11.60;;
4575;SDS011;2300;51.874;8.430;2023-12-20T10:36:24;27.93;;;11.50;;
4575;SDS011;2300;51.874;8.430;2023-12-20T10:38:53;33.57;;;11.63;;
4575;SDS011;2300;51.874;8.430;2023-12-20T10:41:23;29.20;;;11.13;;
4575;SDS011;2300;51.874;8.430;2023-12-20T10:43:53;23.83;;;10.77;;
4575;SDS011;2300;51.874;8.430;2023-12-20T10:46:22;28.00;;;11.40;;
4575;SDS011;2300;51.874;8.430;2023-12-20T10:48:51;23.60;;;9.60;;
4575;SDS011;2300;51.874;8.430;2023-12-20T10:51:19;26.03;;;10.33;;
4575;SDS011;2300;51.874;8.430;2023-12-20T10:53:48;25.17;;;9.87;;
4575;SDS011;2300;51.874;8.430;2023-12-20T10:56:15;27.73;;;11.00;;
4575;SDS011;2300;51.874;8.430;2023-12-20T10:58:44;23.47;;;8.87;;
4575;SDS011;2300;51.874;8.430;2023-12-20T11:01:12;24.33;;;9.50;;
4575;SDS011;2300;51.874;8.430;2023-12-20T11:03:39;31.27;;;9.13;;
4575;SDS011;2300;51.874;8.430;2023-12-20T11:06:13;27.80;;;9.10;;
4575;SDS011;2300;51.874;8.430;2023-12-20T11:08:47;20.63;;;8.27;;
4575;SDS011;2300;51.874;8.430;2023-12-20T11:11:20;20.10;;;7.93;;
4575;SDS011;2300;51.874;8.430;2023-12-20T11:13:55;21.27;;;8.00;;
4575;SDS011;2300;51.874;8.430;2023-12-20T11:16:25;17.47;;;6.10;;
4575;SDS011;2300;51.874;8.430;2023-12-20T11:18:52;23.63;;;6.73;;
4575;SDS011;2300;51.874;8.430;2023-12-20T11:21:19;21.73;;;7.00;;
4575;SDS011;2300;51.874;8.430;2023-12-20T11:23:45;20.67;;;7.07;;
4575;SDS011;2300;51.874;8.430;2023-12-20T11:26:12;20.43;;;7.23;;
4575;SDS011;2300;51.874;8.430;2023-12-20T11:28:42;21.10;;;7.17;;
4575;SDS011;2300;51.874;8.430;2023-12-20T11:31:10;16.20;;;6.67;;
4575;SDS011;2300;51.874;8.430;2023-12-20T11:33:40;19.77;;;7.20;;
4575;SDS011;2300;51.874;8.430;2023-12-20T11:36:12;20.80;;;6.93;;
4575;SDS011;2300;51.874;8.430;2023-12-20T11:38:47;18.90;;;6.47;;
4575;SDS011;2300;51.874;8.430;2023-12-20T11:41:22;14.00;;;5.40;;
4575;SDS011;2300;51.874;8.430;2023-12-20T11:43:49;15.67;;;5.27;;
4575;SDS011;2300;51.874;8.430;2023-12-20T11:46:21;19.00;;;6.23;;
4575;SDS011;2300;51.874;8.430;2023-12-20T11:48:48;16.90;;;5.13;;
4575;SDS011;2300;51.874;8.430;2023-12-20T11:51:14;16.80;;;4.97;;
4575;SDS011;2300;51.874;8.430;2023-12-20T11:53:41;15.63;;;5.00;;
4575;SDS011;2300;51.874;8.430;2023-12-20T11:56:09;14.80;;;4.60;;
4575;SDS011;2300;51.874;8.430;2023-12-20T11:58:37;11.07;;;4.10;;
4575;SDS011;2300;51.874;8.430;2023-12-20T12:01:04;10.43;;;4.63;;
4575;SDS011;2300;51.874;8.430;2023-12-20T12:03:34;13.57;;;4.67;;
4575;SDS011;2300;51.874;8.430;2023-12-20T12:06:01;14.90;;;4.87;;
4575;SDS011;2300;51.874;8.430;2023-12-20T12:08:29;15.37;;;5.17;;
4575;SDS011;2300;51.874;8.430;2023-12-20T12:10:56;13.63;;;5.23;;
4575;SDS011;2300;51.874;8.430;2023-12-20T12:13:23;21.43;;;6.40;;
4575;SDS011;2300;51.874;8.430;2023-12-20T12:15:52;15.70;;;6.00;;
4575;SDS011;2300;51.874;8.430;2023-12-20T12:18:19;18.37;;;5.00;;
4575;SDS011;2300;51.874;8.430;2023-12-20T12:20:47;13.67;;;5.10;;
4575;SDS011;2300;51.874;8.430;2023-12-20T12:23:14;12.30;;;4.70;;
4575;SDS011;2300;51.874;8.430;2023-12-20T12:25:40;15.33;;;4.43;;
4575;SDS011;2300;51.874;8.430;2023-12-20T12:28:07;12.90;;;4.43;;
4575;SDS011;2300;51.874;8.430;2023-12-20T12:30:33;13.53;;;5.13;;
4575;SDS011;2300;51.874;8.430;2023-12-20T12:33:00;11.00;;;4.67;;
4575;SDS011;2300;51.874;8.430;2023-12-20T12:35:27;20.03;;;5.77;;
4575;SDS011;2300;51.874;8.430;2023-12-20T12:37:58;14.80;;;4.40;;
4575;SDS011;2300;51.874;8.430;2023-12-20T12:40:25;12.80;;;5.00;;
4575;SDS011;2300;51.874;8.430;2023-12-20T12:42:51;16.13;;;4.60;;
4575;SDS011;2300;51.874;8.430;2023-12-20T12:45:18;20.23;;;4.73;;
4575;SDS011;2300;51.874;8.430;2023-12-20T12:47:44;15.27;;;4.37;;
4575;SDS011;2300;51.874;8.430;2023-12-20T12:50:11;18.33;;;4.60;;
4575;SDS011;2300;51.874;8.430;2023-12-20T12:52:38;17.03;;;4.47;;
4575;SDS011;2300;51.874;8.430;2023-12-20T12:55:06;16.00;;;4.97;;
4575;SDS011;2300;51.874;8.430;2023-12-20T12:57:33;17.67;;;4.70;;
4575;SDS011;2300;51.874;8.430;2023-12-20T13:00:00;12.47;;;4.33;;
4575;SDS011;2300;51.874;8.430;2023-12-20T13:02:28;17.40;;;3.93;;
4575;SDS011;2300;51.874;8.430;2023-12-20T13:04:53;15.70;;;4.07;;
4575;SDS011;2300;51.874;8.430;2023-12-20T13:07:20;22.63;;;4.50;;
4575;SDS011;2300;51.874;8.430;2023-12-20T13:09:46;16.23;;;3.57;;
4575;SDS011;2300;51.874;8.430;2023-12-20T13:12:14;16.23;;;4.30;;
4575;SDS011;2300;51.874;8.430;2023-12-20T13:14:41;18.37;;;3.87;;
4575;SDS011;2300;51.874;8.430;2023-12-20T13:17:07;17.40;;;4.23;;
4575;SDS011;2300;51.874;8.430;2023-12-20T13:19:34;18.67;;;3.70;;
4575;SDS011;2300;51.874;8.430;2023-12-20T13:22:00;14.87;;;3.90;;
4575;SDS011;2300;51.874;8.430;2023-12-20T13:24:27;20.27;;;4.53;;
4575;SDS011;2300;51.874;8.430;2023-12-20T13:26:54;19.90;;;4.20;;
4575;SDS011;2300;51.874;8.430;2023-12-20T13:29:22;15.53;;;4.43;;
4575;SDS011;2300;51.874;8.430;2023-12-20T13:31:49;18.67;;;3.77;;
4575;SDS011;2300;51.874;8.430;2023-12-20T13:34:15;15.33;;;3.70;;
4575;SDS011;2300;51.874;8.430;2023-12-20T13:36:43;11.07;;;3.30;;
4575;SDS011;2300;51.874;8.430;2023-12-20T13:39:12;13.43;;;4.20;;
4575;SDS011;2300;51.874;8.430;2023-12-20T13:41:39;14.90;;;3.83;;
4575;SDS011;2300;51.874;8.430;2023-12-20T13:44:06;15.07;;;3.90;;
4575;SDS011;2300;51.874;8.430;2023-12-20T13:46:34;12.80;;;3.30;;
4575;SDS011;2300;51.874;8.430;2023-12-20T13:49:00;6.97;;;1.90;;
4575;SDS011;2300;51.874;8.430;2023-12-20T13:51:27;4.63;;;1.07;;
4575;SDS011;2300;51.874;8.430;2023-12-20T13:53:54;5.77;;;1.17;;
4575;SDS011;2300;51.874;8.430;2023-12-20T13:56:20;4.77;;;0.90;;
4575;SDS011;2300;51.874;8.430;2023-12-20T13:58:48;3.50;;;0.97;;
4575;SDS011;2300;51.874;8.430;2023-12-20T14:01:15;4.97;;;0.93;;
4575;SDS011;2300;51.874;8.430;2023-12-20T14:03:43;3.80;;;0.77;;
4575;SDS011;2300;51.874;8.430;2023-12-20T14:06:10;6.63;;;0.80;;
4575;SDS011;2300;51.874;8.430;2023-12-20T14:08:36;6.77;;;1.10;;
4575;SDS011;2300;51.874;8.430;2023-12-20T14:11:03;7.17;;;1.10;;
4575;SDS011;2300;51.874;8.430;2023-12-20T14:13:30;6.07;;;1.30;;
4575;SDS011;2300;51.874;8.430;2023-12-20T14:15:56;4.43;;;1.17;;
4575;SDS011;2300;51.874;8.430;2023-12-20T14:18:25;7.60;;;1.67;;
4575;SDS011;2300;51.874;8.430;2023-12-20T14:20:53;5.40;;;1.07;;
4575;SDS011;2300;51.874;8.430;2023-12-20T14:23:20;8.67;;;2.20;;
4575;SDS011;2300;51.874;8.430;2023-12-20T14:25:47;9.57;;;2.00;;
4575;SDS011;2300;51.874;8.430;2023-12-20T14:28:14;8.93;;;2.70;;
4575;SDS011;2300;51.874;8.430;2023-12-20T14:30:40;8.73;;;2.83;;
4575;SDS011;2300;51.874;8.430;2023-12-20T14:33:07;9.07;;;2.70;;
4575;SDS011;2300;51.874;8.430;2023-12-20T14:35:34;6.67;;;2.67;;
4575;SDS011;2300;51.874;8.430;2023-12-20T14:38:02;11.20;;;4.63;;
4575;SDS011;2300;51.874;8.430;2023-12-20T14:40:28;8.97;;;3.97;;
4575;SDS011;2300;51.874;8.430;2023-12-20T14:42:55;7.53;;;2.93;;
4575;SDS011;2300;51.874;8.430;2023-12-20T14:45:21;6.50;;;2.00;;
4575;SDS011;2300;51.874;8.430;2023-12-20T14:47:48;5.57;;;2.00;;
4575;SDS011;2300;51.874;8.430;2023-12-20T14:50:15;9.60;;;2.00;;
4575;SDS011;2300;51.874;8.430;2023-12-20T14:52:43;6.67;;;1.70;;
4575;SDS011;2300;51.874;8.430;2023-12-20T14:55:11;5.03;;;1.37;;
4575;SDS011;2300;51.874;8.430;2023-12-20T14:57:38;4.43;;;1.50;;